.
WxDataArchive / Data Records for 2015-03-03
2015-03-02 March 2015 2015-03-04

Data Records for Tuesday, 03 March 2015

Time	Temp	Chill	HIndex	Humid	Dewpt	 Wind 	HiWind	WindDir	Rain 	Barom
-----	----	-----	------	-----	-----	------	------	-------	-----	-----
00:00	23.2	23.2	23.2	69	14.6	0	1	68	0.00	30.355 
00:05	23.2	23.2	23.2	69	14.6	0	3	68	0.00	30.355 
00:10	23.3	23.3	23.3	68	14.3	0	1	68	0.00	30.355 
00:15	23.3	23.3	23.3	69	14.7	0	1	68	0.00	30.342 
00:20	23.3	23.3	23.3	69	14.7	0	1	68	0.00	30.342 
00:25	23.3	23.3	23.3	69	14.7	0	0	---	0.00	30.342 
00:30	23.5	23.5	23.5	69	14.9	0	0	---	0.00	30.343 
00:35	23.5	23.5	23.5	69	14.9	0	1	68	0.00	30.343 
00:40	23.5	23.5	23.5	68	14.5	0	1	68	0.00	30.343 
00:45	23.5	23.5	23.5	68	14.5	0	1	68	0.00	30.321 
00:50	23.5	23.5	23.5	68	14.5	0	1	68	0.00	30.321 
00:55	23.5	23.5	23.5	68	14.5	0	1	68	0.00	30.321 
01:00	23.5	23.5	23.5	68	14.5	0	1	68	0.00	30.314 
01:05	23.6	23.6	23.6	68	14.6	0	2	68	0.00	30.314 
01:10	23.6	23.6	23.6	69	14.9	0	2	68	0.00	30.314 
01:15	23.5	23.5	23.5	69	14.9	1	2	68	0.00	30.297 
01:20	23.3	23.3	23.3	70	15.0	1	3	68	0.00	30.297 
01:25	23.3	23.3	23.3	70	15.0	0	1	68	0.00	30.297 
01:30	23.2	23.2	23.2	70	14.9	1	4	68	0.00	30.294 
01:35	23.0	23.0	23.0	71	15.0	1	3	68	0.00	30.294 
01:40	22.9	22.9	22.9	71	14.9	0	2	68	0.00	30.294 
01:45	22.9	22.9	22.9	71	14.9	0	1	68	0.00	30.304 
01:50	22.9	22.9	22.9	71	14.9	0	1	68	0.00	30.304 
01:55	22.9	22.9	22.9	71	14.9	0	2	68	0.00	30.304 
02:00	22.9	22.9	22.9	71	14.9	0	1	68	0.00	30.303 
02:05	22.7	22.7	22.7	72	15.1	0	2	68	0.00	30.303 
02:10	22.7	22.7	22.7	71	14.7	1	3	68	0.00	30.303 
02:15	22.5	22.5	22.5	71	14.5	1	3	68	0.00	30.285 
02:20	22.5	22.5	22.5	71	14.5	2	4	68	0.00	30.285 
02:25	22.4	22.4	22.4	72	14.8	0	2	68	0.00	30.285 
02:30	22.4	22.4	22.4	72	14.8	0	2	68	0.00	30.276 
02:35	22.4	22.4	22.4	71	14.4	0	1	68	0.00	30.276 
02:40	22.4	22.4	22.4	71	14.4	0	1	68	0.00	30.276 
02:45	22.4	22.4	22.4	71	14.4	1	4	68	0.00	30.280 
02:50	22.4	22.4	22.4	71	14.4	0	1	68	0.00	30.280 
02:55	22.4	22.4	22.4	71	14.4	0	1	68	0.00	30.280 
03:00	22.4	22.4	22.4	72	14.8	0	2	68	0.00	30.281 
03:05	22.4	22.4	22.4	72	14.8	0	3	68	0.00	30.281 
03:10	22.4	22.4	22.4	72	14.8	0	2	68	0.00	30.281 
03:15	22.4	22.4	22.4	72	14.8	1	3	68	0.00	30.267 
03:20	22.4	22.4	22.4	72	14.8	1	3	68	0.00	30.267 
03:25	22.2	22.2	22.2	73	14.9	1	3	68	0.00	30.267 
03:30	22.2	22.2	22.2	73	14.9	2	5	68	0.00	30.245 
03:35	22.2	22.2	22.2	73	14.9	1	3	68	0.00	30.245 
03:40	22.1	22.1	22.1	74	15.1	1	3	68	0.00	30.245 
03:45	22.1	22.1	22.1	74	15.1	1	4	68	0.00	30.227 
03:50	22.1	22.1	22.1	74	15.1	1	3	68	0.00	30.227 
03:55	22.1	22.1	22.1	74	15.1	1	3	68	0.00	30.227 
04:00	22.1	22.1	22.1	75	15.4	1	5	68	0.00	30.211 
04:05	22.1	22.1	22.1	75	15.4	1	4	112	0.00	30.211 
04:10	22.1	22.1	22.1	75	15.4	2	6	112	0.00	30.211 
04:15	22.1	22.1	22.1	74	15.1	2	4	112	0.00	30.192 
04:20	21.9	21.9	21.9	75	15.2	1	4	112	0.00	30.192 
04:25	21.9	21.9	21.9	74	14.9	2	4	112	0.00	30.192 
04:30	21.8	21.8	21.8	74	14.8	2	6	112	0.00	30.190 
04:35	21.8	21.8	21.8	75	15.1	1	4	112	0.00	30.190 
04:40	21.8	21.8	21.8	75	15.1	2	4	112	0.00	30.190 
04:45	21.9	21.9	21.9	75	15.2	1	4	112	0.00	30.190 
04:50	21.9	21.9	21.9	75	15.2	1	5	112	0.00	30.190 
04:55	21.9	21.9	21.9	75	15.2	1	3	112	0.00	30.190 
05:00	22.1	22.1	22.1	75	15.4	0	2	112	0.00	30.193 
05:05	22.1	22.1	22.1	75	15.4	1	3	112	0.00	30.193 
05:10	22.1	22.1	22.1	75	15.4	1	3	112	0.00	30.193 
05:15	22.1	22.1	22.1	75	15.4	2	4	112	0.00	30.171 
05:20	22.1	22.1	22.1	75	15.4	2	5	112	0.00	30.171 
05:25	22.2	22.2	22.2	75	15.5	2	4	112	0.00	30.171 
05:30	22.2	22.2	22.2	75	15.5	3	5	112	0.00	30.148 
05:35	22.2	22.2	22.2	75	15.5	2	5	112	0.00	30.148 
05:40	22.2	22.2	22.2	75	15.5	2	4	112	0.00	30.148 
05:45	22.2	22.2	22.2	75	15.5	2	4	112	0.00	30.142 
05:50	22.4	22.4	22.4	76	16.0	0	3	112	0.00	30.142 
05:55	22.4	22.4	22.4	76	16.0	1	4	112	0.00	30.142 
06:00	22.5	22.5	22.5	76	16.1	0	2	112	0.00	30.162 
06:05	22.5	22.5	22.5	76	16.1	0	1	112	0.00	30.162 
06:10	22.7	22.7	22.7	76	16.3	0	2	112	0.00	30.162 
06:15	22.7	22.7	22.7	75	16.0	1	3	112	0.00	30.159 
06:20	22.9	22.9	22.9	75	16.2	0	2	112	0.00	30.159 
06:25	23.2	23.2	23.2	75	16.5	1	3	112	0.00	30.159 
06:30	23.5	23.5	23.5	75	16.8	1	5	112	0.00	30.149 
06:35	23.6	23.6	23.6	76	17.2	1	5	112	0.00	30.149 
06:40	23.8	23.8	23.8	77	17.7	3	7	112	0.00	30.149 
06:45	23.9	23.9	23.9	79	18.4	2	6	112	0.00	30.139 
06:50	24.2	24.2	24.2	80	18.9	1	2	90	0.00	30.139 
06:55	24.4	24.4	24.4	81	19.4	1	3	68	0.00	30.139 
07:00	24.4	24.4	24.4	81	19.4	1	3	90	0.00	30.149 
07:05	24.4	24.4	24.4	81	19.4	1	4	90	0.00	30.149 
07:10	24.4	24.4	24.4	81	19.4	1	3	90	0.00	30.149 
07:15	24.4	24.4	24.4	81	19.4	1	5	90	0.00	30.131 
07:20	24.5	24.5	24.5	82	19.8	1	5	90	0.00	30.131 
07:25	24.5	24.5	24.5	82	19.8	0	3	90	0.00	30.131 
07:30	24.7	24.7	24.7	81	19.7	1	4	90	0.00	30.110 
07:35	24.7	24.7	24.7	81	19.7	1	6	90	0.00	30.110 
07:40	24.7	24.7	24.7	82	20.0	0	1	90	0.00	30.110 
07:45	24.8	24.8	24.8	82	20.1	0	1	90	0.00	30.110 
07:50	24.8	24.8	24.8	82	20.1	1	4	90	0.00	30.110 
07:55	24.8	24.8	24.8	81	19.8	1	2	112	0.00	30.110 
08:00	24.8	24.8	24.8	81	19.8	2	4	90	0.00	30.098 
08:05	25.0	25.0	25.0	82	20.3	0	3	90	0.00	30.098 
08:10	25.0	25.0	25.0	82	20.3	1	4	90	0.00	30.098 
08:15	25.0	25.0	25.0	82	20.3	2	5	90	0.00	30.084 
08:20	25.0	25.0	25.0	82	20.3	1	4	90	0.00	30.084 
08:25	25.1	25.1	25.1	82	20.4	1	5	90	0.00	30.084 
08:30	25.1	25.1	25.1	82	20.4	2	5	90	0.00	30.073 
08:35	25.1	25.1	25.1	82	20.4	2	5	112	0.00	30.073 
08:40	25.3	25.3	25.3	82	20.6	2	5	90	0.00	30.073 
08:45	25.3	25.3	25.3	82	20.6	1	4	90	0.00	30.069 
08:50	25.4	25.4	25.4	82	20.7	2	4	90	0.00	30.069 
08:55	25.4	25.4	25.4	82	20.7	2	5	90	0.00	30.069 
09:00	25.6	25.6	25.6	82	20.9	2	5	90	0.00	30.033 
09:05	25.6	25.6	25.6	82	20.9	2	5	90	0.00	30.033 
09:10	25.6	25.6	25.6	82	20.9	2	5	90	0.00	30.033 
09:15	25.7	25.7	25.7	82	21.0	1	6	90	0.00	30.038 
09:20	25.7	25.7	25.7	82	21.0	1	3	112	0.00	30.038 
09:25	25.8	25.8	25.8	82	21.1	1	5	90	0.00	30.038 
09:30	26.0	26.0	26.0	82	21.3	1	4	90	0.00	30.003 
09:35	26.1	26.1	26.1	81	21.1	3	6	90	0.00	30.003 
09:40	26.3	26.3	26.3	81	21.3	2	5	90	0.00	30.003 
09:45	26.4	26.4	26.4	81	21.4	1	3	112	0.00	29.980 
09:50	26.6	26.6	26.6	81	21.6	1	4	90	0.00	29.980 
09:55	26.7	26.7	26.7	81	21.7	1	6	112	0.00	29.980 
10:00	26.9	26.9	26.9	81	21.9	0	2	112	0.00	29.991 
10:05	26.9	26.9	26.9	81	21.9	1	5	112	0.00	29.991 
10:10	27.0	27.0	27.0	80	21.7	1	5	112	0.00	29.991 
10:15	27.2	27.2	27.2	81	22.2	1	4	112	0.00	29.961 
10:20	27.5	27.5	27.5	81	22.4	2	7	112	0.00	29.961 
10:25	27.6	27.6	27.6	82	22.8	1	7	90	0.00	29.961 
10:30	27.8	27.8	27.8	83	23.3	1	6	112	0.00	29.943 
10:35	27.8	27.8	27.8	83	23.3	2	4	112	0.00	29.943 
10:40	27.9	27.9	27.9	84	23.7	1	5	112	0.00	29.943 
10:45	28.2	28.2	28.2	84	24.0	1	5	90	0.00	29.896 
10:50	28.2	28.2	28.2	85	24.3	2	5	90	0.00	29.896 
10:55	28.1	28.1	28.1	85	24.2	2	5	112	0.00	29.896 
11:00	28.1	28.1	28.1	85	24.2	1	4	112	0.00	29.910 
11:05	28.1	28.1	28.1	85	24.2	2	7	112	0.00	29.910 
11:10	28.1	28.1	28.1	85	24.2	2	6	90	0.00	29.910 
11:15	28.2	28.2	28.2	85	24.3	2	5	90	0.00	29.878 
11:20	28.4	28.4	28.4	86	24.8	2	9	90	0.00	29.878 
11:25	28.5	28.5	28.5	86	24.9	2	6	90	0.00	29.878 
11:30	28.7	28.7	28.7	86	25.1	2	5	112	0.00	29.875 
11:35	28.8	28.8	28.8	87	25.4	1	4	112	0.00	29.875 
11:40	28.8	28.8	28.8	87	25.4	2	5	112	0.00	29.875 
11:45	29.0	29.0	29.0	87	25.6	3	6	112	0.00	29.856 
11:50	29.1	29.1	29.1	88	26.0	2	6	112	0.00	29.856 
11:55	29.3	29.3	29.3	88	26.2	3	9	90	0.00	29.856 
12:00	29.4	29.4	29.4	88	26.3	2	5	112	0.00	29.830 
12:05	29.5	29.5	29.5	88	26.4	2	5	90	0.00	29.830 
12:10	29.7	29.7	29.7	89	26.9	1	4	90	0.00	29.830 
12:15	29.8	29.8	29.8	89	27.0	2	4	90	0.00	29.811 
12:20	30.0	30.0	30.0	89	27.2	2	4	90	0.00	29.811 
12:25	30.0	30.0	30.0	89	27.2	2	5	90	0.00	29.811 
12:30	30.0	30.0	30.0	90	27.4	2	7	112	0.00	29.785 
12:35	30.1	30.1	30.1	90	27.5	2	5	112	0.00	29.785 
12:40	30.1	30.1	30.1	90	27.5	1	4	112	0.00	29.785 
12:45	30.3	30.3	30.3	90	27.7	2	5	112	0.00	29.766 
12:50	30.4	30.4	30.4	91	28.1	2	6	112	0.00	29.766 
12:55	30.6	30.6	30.6	91	28.3	2	6	112	0.00	29.766 
13:00	30.6	30.6	30.6	91	28.3	1	4	112	0.00	29.764 
13:05	30.7	30.7	30.7	91	28.4	1	3	90	0.00	29.764 
13:10	30.9	30.9	30.9	91	28.6	2	6	90	0.00	29.764 
13:15	31.2	31.2	31.2	91	28.9	2	7	90	0.00	29.749 
13:20	31.3	31.3	31.3	91	29.0	1	4	90	0.00	29.749 
13:25	31.6	31.6	31.6	91	29.3	1	4	90	0.00	29.749 
13:30	31.8	31.8	31.8	92	29.7	0	1	68	0.00	29.749 
13:35	31.9	31.9	31.9	92	29.8	0	3	68	0.00	29.749 
13:40	32.2	32.2	32.2	92	30.1	1	3	270	0.00	29.749 
13:45	32.4	32.4	32.4	92	30.3	1	4	248	0.00	29.733 
13:50	32.5	32.5	32.5	92	30.4	0	3	135	0.00	29.733 
13:55	32.7	32.7	32.7	92	30.6	1	4	90	0.00	29.733 
14:00	32.8	32.8	32.8	92	30.7	0	2	90	0.00	29.712 
14:05	32.9	32.9	32.9	92	30.8	1	3	315	0.00	29.712 
14:10	33.1	33.1	33.1	92	31.0	0	2	292	0.00	29.712 
14:15	33.2	33.2	33.2	92	31.1	1	4	315	0.01	29.689 
14:20	33.2	33.2	33.2	92	31.1	1	3	270	0.00	29.689 
14:25	33.4	33.4	33.4	92	31.3	1	3	270	0.00	29.689 
14:30	33.5	33.5	33.5	92	31.4	1	6	90	0.00	29.665 
14:35	33.7	33.7	33.7	92	31.6	1	4	248	0.00	29.665 
14:40	34.0	34.0	34.0	93	32.2	1	5	248	0.00	29.665 
14:45	34.1	34.1	34.1	93	32.3	1	4	248	0.00	29.670 
14:50	34.3	34.3	34.3	93	32.5	1	6	248	0.00	29.670 
14:55	34.6	34.6	34.6	93	32.8	1	4	248	0.00	29.670 
15:00	34.7	34.7	34.7	93	32.9	1	5	248	0.00	29.663 
15:05	34.9	34.9	34.9	93	33.1	1	5	248	0.00	29.663 
15:10	35.0	35.0	35.0	93	33.2	2	9	225	0.00	29.663 
15:15	35.2	35.2	35.2	93	33.4	1	4	248	0.00	29.668 
15:20	35.3	35.3	35.3	93	33.5	1	5	248	0.00	29.668 
15:25	35.3	35.3	35.3	93	33.5	1	4	248	0.00	29.668 
15:30	35.5	35.5	35.5	93	33.7	1	4	248	0.00	29.654 
15:35	35.6	35.6	35.6	93	33.8	1	3	225	0.00	29.654 
15:40	35.8	35.8	35.8	93	34.0	1	5	225	0.00	29.654 
15:45	35.9	35.9	35.9	93	34.1	1	5	248	0.00	29.664 
15:50	36.2	36.2	36.2	93	34.4	1	5	248	0.00	29.664 
15:55	36.3	36.3	36.3	93	34.5	1	6	248	0.00	29.664 
16:00	36.5	36.5	36.5	93	34.7	1	6	248	0.00	29.662 
16:05	36.5	36.5	36.5	93	34.7	2	5	248	0.00	29.662 
16:10	36.6	36.6	36.6	94	35.0	1	5	248	0.00	29.662 
16:15	36.6	36.6	36.6	94	35.0	1	6	248	0.00	29.651 
16:20	36.9	36.9	36.9	94	35.3	1	4	248	0.00	29.651 
16:25	37.0	37.0	37.0	94	35.4	2	7	248	0.00	29.651 
16:30	37.2	37.2	37.2	94	35.6	2	6	248	0.00	29.662 
16:35	37.3	37.3	37.3	94	35.7	2	7	248	0.00	29.662 
16:40	37.6	37.6	37.6	94	36.0	2	7	248	0.00	29.662 
16:45	37.8	37.8	37.8	94	36.2	2	10	248	0.00	29.652 
16:50	37.9	37.9	37.9	94	36.3	3	11	248	0.00	29.652 
16:55	38.0	38.0	38.0	94	36.4	3	8	248	0.00	29.652 
17:00	38.0	38.0	38.0	94	36.4	3	8	248	0.01	29.663 
17:05	38.0	38.0	38.0	94	36.4	3	10	248	0.00	29.663 
17:10	38.0	38.0	38.0	94	36.4	3	9	270	0.00	29.663 
17:15	37.9	37.9	37.9	94	36.3	3	5	248	0.01	29.672 
17:20	37.8	37.8	37.8	94	36.2	3	7	248	0.00	29.672 
17:25	37.8	37.8	37.8	94	36.2	3	7	248	0.00	29.672 
17:30	37.6	37.6	37.6	94	36.0	2	6	270	0.00	29.672 
17:35	37.6	37.6	37.6	94	36.0	3	6	248	0.00	29.672 
17:40	37.6	34.5	37.6	94	36.0	4	10	248	0.00	29.672 
17:45	37.5	37.5	37.5	94	35.9	3	7	270	0.00	29.678 
17:50	37.3	34.2	37.3	94	35.7	4	9	270	0.00	29.678 
17:55	37.3	34.2	37.3	94	35.7	4	7	270	0.00	29.678 
18:00	37.2	37.2	37.2	93	35.4	3	10	270	0.00	29.680 
18:05	37.0	37.0	37.0	93	35.2	3	9	248	0.00	29.680 
18:10	37.0	37.0	37.0	93	35.2	3	6	248	0.00	29.680 
18:15	36.9	36.9	36.9	93	35.1	3	7	248	0.00	29.698 
18:20	36.9	36.9	36.9	92	34.8	3	5	270	0.01	29.698 
18:25	36.9	36.9	36.9	92	34.8	3	6	248	0.00	29.698 
18:30	36.8	36.8	36.8	92	34.7	3	6	248	0.00	29.711 
18:35	36.8	36.8	36.8	92	34.7	3	7	248	0.00	29.711 
18:40	36.6	36.6	36.6	92	34.5	3	9	248	0.00	29.711 
18:45	36.6	36.6	36.6	91	34.2	2	6	248	0.00	29.710 
18:50	36.5	36.5	36.5	91	34.1	3	5	270	0.00	29.710 
18:55	36.5	36.5	36.5	91	34.1	3	6	270	0.01	29.710 
19:00	36.5	36.5	36.5	90	33.9	3	5	270	0.00	29.722 
19:05	36.3	36.3	36.3	90	33.7	2	5	248	0.00	29.722 
19:10	36.3	36.3	36.3	90	33.7	2	4	248	0.00	29.722 
19:15	36.2	36.2	36.2	90	33.6	2	5	248	0.00	29.747 
19:20	36.2	36.2	36.2	90	33.6	2	6	248	0.00	29.747 
19:25	36.2	36.2	36.2	90	33.6	2	4	270	0.00	29.747 
19:30	36.2	36.2	36.2	90	33.6	2	6	292	0.00	29.755 
19:35	36.0	36.0	36.0	90	33.4	2	5	270	0.00	29.755 
19:40	36.0	36.0	36.0	90	33.4	2	4	270	0.00	29.755 
19:45	35.9	35.9	35.9	90	33.3	2	4	270	0.00	29.743 
19:50	35.9	35.9	35.9	89	33.0	1	4	270	0.00	29.743 
19:55	35.9	35.9	35.9	89	33.0	3	5	270	0.01	29.743 
20:00	35.8	35.8	35.8	89	32.9	2	4	270	0.00	29.753 
20:05	35.8	35.8	35.8	89	32.9	2	5	248	0.00	29.753 
20:10	35.6	35.6	35.6	88	32.4	2	4	248	0.00	29.753 
20:15	35.8	35.8	35.8	88	32.6	2	5	270	0.00	29.760 
20:20	35.6	35.6	35.6	88	32.4	2	4	248	0.00	29.760 
20:25	35.6	35.6	35.6	88	32.4	1	4	248	0.00	29.760 
20:30	35.6	35.6	35.6	88	32.4	2	4	248	0.00	29.756 
20:35	35.6	35.6	35.6	88	32.4	2	4	248	0.00	29.756 
20:40	35.5	35.5	35.5	88	32.3	2	5	248	0.00	29.756 
20:45	35.5	35.5	35.5	88	32.3	2	5	248	0.00	29.763 
20:50	35.5	35.5	35.5	88	32.3	1	4	270	0.00	29.763 
20:55	35.5	35.5	35.5	88	32.3	2	5	270	0.00	29.763 
21:00	35.5	35.5	35.5	88	32.3	2	5	270	0.00	29.766 
21:05	35.3	35.3	35.3	87	31.8	2	4	270	0.00	29.766 
21:10	35.3	35.3	35.3	87	31.8	1	5	270	0.00	29.766 
21:15	35.3	35.3	35.3	87	31.8	1	4	270	0.00	29.783 
21:20	35.3	35.3	35.3	87	31.8	2	4	270	0.00	29.783 
21:25	35.3	35.3	35.3	87	31.8	2	4	270	0.00	29.783 
21:30	35.3	35.3	35.3	87	31.8	3	6	270	0.00	29.786 
21:35	35.3	35.3	35.3	87	31.8	2	4	270	0.00	29.786 
21:40	35.2	35.2	35.2	86	31.4	1	4	248	0.01	29.786 
21:45	35.2	35.2	35.2	86	31.4	2	4	248	0.00	29.797 
21:50	35.2	35.2	35.2	86	31.4	2	5	270	0.00	29.797 
21:55	35.2	35.2	35.2	86	31.4	2	5	270	0.00	29.797 
22:00	35.2	35.2	35.2	85	31.2	1	3	270	0.00	29.802 
22:05	35.2	35.2	35.2	85	31.2	1	4	270	0.00	29.802 
22:10	35.2	35.2	35.2	85	31.2	2	4	270	0.00	29.802 
22:15	35.2	35.2	35.2	85	31.2	2	3	270	0.00	29.801 
22:20	35.0	35.0	35.0	85	31.0	0	3	270	0.00	29.801 
22:25	35.0	35.0	35.0	85	31.0	2	4	270	0.00	29.801 
22:30	35.0	35.0	35.0	85	31.0	1	4	315	0.00	29.802 
22:35	35.0	35.0	35.0	85	31.0	1	5	292	0.00	29.802 
22:40	34.9	34.9	34.9	85	30.9	2	9	270	0.00	29.802 
22:45	34.9	34.9	34.9	84	30.6	2	4	270	0.00	29.805 
22:50	34.9	34.9	34.9	84	30.6	2	6	270	0.00	29.805 
22:55	34.9	34.9	34.9	83	30.3	3	5	270	0.00	29.805 
23:00	34.9	34.9	34.9	83	30.3	2	4	270	0.00	29.815 
23:05	34.9	34.9	34.9	83	30.3	2	5	270	0.00	29.815 
23:10	34.9	34.9	34.9	82	30.0	2	6	270	0.00	29.815 
23:15	34.9	34.9	34.9	82	30.0	2	6	270	0.00	29.816 
23:20	34.9	34.9	34.9	82	30.0	3	6	270	0.00	29.816 
23:25	34.9	34.9	34.9	82	30.0	2	6	292	0.00	29.816 
23:30	34.7	34.7	34.7	83	30.1	2	3	270	0.00	29.819 
23:35	34.7	34.7	34.7	83	30.1	1	4	315	0.00	29.819 
23:40	34.7	34.7	34.7	83	30.1	1	4	270	0.00	29.819 
23:45	34.6	34.6	34.6	83	30.0	0	2	270	0.00	29.836 
23:50	34.6	34.6	34.6	83	30.0	1	4	270	0.00	29.836 
23:55	34.6	34.6	34.6	83	30.0	1	4	248	0.00	29.836 

CoCoRaHS
IN-AL-39
A2 Web Hosting
Creative Commons License
GoDaddy
search engine by freefind advanced

loaded 2018-11-12 15:54:45 • last modified 2010-11-18 10:43:29
Privacy PolicyDisclaimer
• wx.awcolley.com is powered by PmWiki v.2002016 •
• all content (unless otherwise noted) © 2018 A W Colley